Riverbank, California
Current Conditions -  °F | °C
As of 1:53 AM on Saturday 29 Nov 2014 (Local Time) from KMOD Reporting Station
Haze Haze  
Wind Chill: 48°   Ceiling: 6000
Heat Index: 48°   Visibility: 4mi
Dew Point: 45°   Wind: 0mph
Humidity: 89%   Direction: NA
Pressure: 29.86"   Gusts: NA
Location:  37.74°N, 120.93°W
Report Text: KMOD 290953Z AUTO 00000KT 4SM BR OVC060 09/07 A2986 RMK AO2 SLP111 T00890072
Loading
Personal Weather Stations






























Interactive Weather Map New forecast layout! Learn more

10-Day Weather Forecast

Advertisements
Track Severe Weather on mobile